createdAt,value
2024-01-22T00:00:08.945Z,3.57
2024-01-22T00:00:19.428Z,3.57
2024-01-22T00:00:29.914Z,3.58
2024-01-22T00:00:40.412Z,3.58
2024-01-22T00:00:50.957Z,3.57
2024-01-22T00:01:01.491Z,3.55
2024-01-22T00:01:11.965Z,3.57
2024-01-22T00:01:22.420Z,3.54
2024-01-22T00:01:32.925Z,3.55
2024-01-22T00:01:43.437Z,3.57
2024-01-22T00:01:53.940Z,3.57
2024-01-22T00:02:04.436Z,3.57
2024-01-22T00:02:14.939Z,3.57
2024-01-22T00:02:25.466Z,3.57
2024-01-22T00:02:36.490Z,3.58
2024-01-22T00:02:46.990Z,3.60
2024-01-22T00:02:57.500Z,3.60
2024-01-22T00:03:08.035Z,3.61
2024-01-22T00:03:18.556Z,3.61
2024-01-22T00:03:29.008Z,3.62
2024-01-22T00:03:39.494Z,3.60
2024-01-22T00:03:50.032Z,3.60
2024-01-22T00:04:00.526Z,3.60
2024-01-22T00:04:11.019Z,3.58
2024-01-22T00:04:21.489Z,3.58
2024-01-22T00:04:31.998Z,3.61
2024-01-22T00:04:42.512Z,3.60
2024-01-22T00:04:53.002Z,3.61
2024-01-22T00:05:03.506Z,3.65
2024-01-22T00:05:14.013Z,3.68
2024-01-22T00:05:24.565Z,3.69
2024-01-22T00:05:35.172Z,3.68
2024-01-22T00:05:45.614Z,3.69
2024-01-22T00:05:56.157Z,3.69
2024-01-22T00:06:06.648Z,3.69
2024-01-22T00:06:17.086Z,3.68
2024-01-22T00:06:27.614Z,3.68
2024-01-22T00:06:38.182Z,3.68
2024-01-22T00:06:48.589Z,3.65
2024-01-22T00:06:59.050Z,3.66
2024-01-22T00:07:09.554Z,3.65
2024-01-22T00:07:20.071Z,3.66
2024-01-22T00:07:30.577Z,3.66
2024-01-22T00:07:41.067Z,3.68
2024-01-22T00:07:51.575Z,3.66
2024-01-22T00:08:02.078Z,3.65
2024-01-22T00:08:12.591Z,3.68
2024-01-22T00:08:23.115Z,3.66
2024-01-22T00:08:33.621Z,3.68
2024-01-22T00:08:44.108Z,3.66
2024-01-22T00:08:54.625Z,3.66
2024-01-22T00:09:05.155Z,3.66
2024-01-22T00:09:15.666Z,3.68
2024-01-22T00:09:26.110Z,3.68
2024-01-22T00:09:36.604Z,3.65
2024-01-22T00:09:47.107Z,3.66
2024-01-22T00:09:57.622Z,3.66
2024-01-22T00:10:08.119Z,3.66
2024-01-22T00:10:18.618Z,3.65
2024-01-22T00:10:29.130Z,3.65
2024-01-22T00:10:39.628Z,3.66
2024-01-22T00:10:50.135Z,3.62
2024-01-22T00:11:00.630Z,3.65
2024-01-22T00:11:11.136Z,3.66
2024-01-22T00:11:21.650Z,3.66
2024-01-22T00:11:32.171Z,3.69
2024-01-22T00:11:42.735Z,3.69
2024-01-22T00:11:53.785Z,3.69
2024-01-22T00:12:04.198Z,3.70
2024-01-22T00:12:14.700Z,3.72
2024-01-22T00:12:25.162Z,3.73
2024-01-22T00:12:35.671Z,3.73
2024-01-22T00:12:46.166Z,3.73
2024-01-22T00:12:56.680Z,3.73
2024-01-22T00:13:07.186Z,3.72
2024-01-22T00:13:17.692Z,3.70
2024-01-22T00:13:28.193Z,3.72
2024-01-22T00:13:38.700Z,3.72
2024-01-22T00:13:49.211Z,3.73
2024-01-22T00:13:59.711Z,3.72
2024-01-22T00:14:10.218Z,3.72
2024-01-22T00:14:20.718Z,3.72
2024-01-22T00:14:31.242Z,3.72
2024-01-22T00:14:41.798Z,3.75
2024-01-22T00:14:52.318Z,3.75
2024-01-22T00:15:02.765Z,3.75
2024-01-22T00:15:13.297Z,3.78
2024-01-22T00:15:23.778Z,3.78
2024-01-22T00:15:34.250Z,3.78
2024-01-22T00:15:44.745Z,3.80
2024-01-22T00:15:55.266Z,3.80
2024-01-22T00:16:05.758Z,3.78
2024-01-22T00:16:16.280Z,3.76
2024-01-22T00:16:26.770Z,3.79
2024-01-22T00:16:37.270Z,3.75
2024-01-22T00:16:47.776Z,3.75
2024-01-22T00:16:58.306Z,3.73
2024-01-22T00:17:08.794Z,3.72
2024-01-22T00:17:19.292Z,3.69
2024-01-22T00:17:29.820Z,3.70
2024-01-22T00:17:40.395Z,3.68
2024-01-22T00:17:50.952Z,3.69
2024-01-22T00:18:01.435Z,3.69
2024-01-22T00:18:11.940Z,3.70
2024-01-22T00:18:22.456Z,3.70
2024-01-22T00:18:32.965Z,3.70
2024-01-22T00:18:43.415Z,3.75
2024-01-22T00:18:54.008Z,3.76
2024-01-22T00:19:04.408Z,3.75
2024-01-22T00:19:14.874Z,3.75
2024-01-22T00:19:25.411Z,3.79
2024-01-22T00:19:35.882Z,3.79
2024-01-22T00:19:46.575Z,3.79
2024-01-22T00:19:56.896Z,3.83
2024-01-22T00:20:07.393Z,3.80
2024-01-22T00:20:17.896Z,3.83
2024-01-22T00:20:28.379Z,3.83
2024-01-22T00:20:38.919Z,3.80
2024-01-22T00:20:49.402Z,3.80
2024-01-22T00:20:59.952Z,3.80
2024-01-22T00:21:10.455Z,3.83
2024-01-22T00:21:20.966Z,3.80
2024-01-22T00:21:31.407Z,3.79
2024-01-22T00:21:41.935Z,3.79
2024-01-22T00:21:52.411Z,3.78
2024-01-22T00:22:02.914Z,3.78
2024-01-22T00:22:13.435Z,3.75
2024-01-22T00:22:23.929Z,3.73
2024-01-22T00:22:34.438Z,3.73
2024-01-22T00:22:44.926Z,3.72
2024-01-22T00:22:55.448Z,3.72
2024-01-22T00:23:06.438Z,3.72
2024-01-22T00:23:16.944Z,3.70
2024-01-22T00:23:27.476Z,3.70
2024-01-22T00:23:37.981Z,3.68
2024-01-22T00:23:48.489Z,3.66
2024-01-22T00:23:59.013Z,3.69
2024-01-22T00:24:09.511Z,3.69
2024-01-22T00:24:20.038Z,3.66
2024-01-22T00:24:30.478Z,3.68
2024-01-22T00:24:40.973Z,3.66
2024-01-22T00:24:51.472Z,3.68
2024-01-22T00:25:01.997Z,3.66
2024-01-22T00:25:12.483Z,3.65
2024-01-22T00:25:22.991Z,3.65
2024-01-22T00:25:33.489Z,3.65
2024-01-22T00:25:43.989Z,3.65
2024-01-22T00:25:54.495Z,3.65
2024-01-22T00:26:05.003Z,3.68
2024-01-22T00:26:15.504Z,3.69
2024-01-22T00:26:26.017Z,3.68
2024-01-22T00:26:36.551Z,3.68
2024-01-22T00:26:47.046Z,3.69
2024-01-22T00:26:57.549Z,3.69
2024-01-22T00:27:08.074Z,3.69
2024-01-22T00:27:18.591Z,3.69
2024-01-22T00:27:29.044Z,3.69
2024-01-22T00:27:39.553Z,3.70
2024-01-22T00:27:50.056Z,3.72
2024-01-22T00:28:00.565Z,3.70
2024-01-22T00:28:11.065Z,3.70
2024-01-22T00:28:21.619Z,3.72
2024-01-22T00:28:32.084Z,3.72
2024-01-22T00:28:42.610Z,3.72
2024-01-22T00:28:53.099Z,3.72
2024-01-22T00:29:03.610Z,3.70
2024-01-22T00:29:14.105Z,3.70
2024-01-22T00:29:24.613Z,3.72
2024-01-22T00:29:35.145Z,3.68
2024-01-22T00:29:45.608Z,3.69
2024-01-22T00:29:56.168Z,3.68
2024-01-22T00:30:06.709Z,3.69
2024-01-22T00:30:17.282Z,3.72
2024-01-22T00:30:27.666Z,3.72
2024-01-22T00:30:38.142Z,3.72
2024-01-22T00:30:48.703Z,3.72
2024-01-22T00:30:59.142Z,3.75
2024-01-22T00:31:09.666Z,3.72
2024-01-22T00:31:20.147Z,3.73
2024-01-22T00:31:30.652Z,3.72
2024-01-22T00:31:41.295Z,3.72
2024-01-22T00:31:51.662Z,3.72
2024-01-22T00:32:02.160Z,3.73
2024-01-22T00:32:12.682Z,3.73
2024-01-22T00:32:23.331Z,3.73
2024-01-22T00:32:33.755Z,3.73
2024-01-22T00:32:44.246Z,3.72
2024-01-22T00:32:54.801Z,3.73
2024-01-22T00:33:05.417Z,3.70
2024-01-22T00:33:15.770Z,3.69
2024-01-22T00:33:26.260Z,3.70
2024-01-22T00:33:37.067Z,3.70
2024-01-22T00:33:47.354Z,3.69
2024-01-22T00:33:57.788Z,3.70
2024-01-22T00:34:08.321Z,3.69
2024-01-22T00:34:18.720Z,3.70
2024-01-22T00:34:29.282Z,3.70
2024-01-22T00:34:39.797Z,3.70
2024-01-22T00:34:50.316Z,3.70
2024-01-22T00:35:00.757Z,3.69
2024-01-22T00:35:11.243Z,3.72
2024-01-22T00:35:21.758Z,3.72
2024-01-22T00:35:32.344Z,3.75
2024-01-22T00:35:42.817Z,3.76
2024-01-22T00:35:53.338Z,3.75
2024-01-22T00:36:03.764Z,3.73
2024-01-22T00:36:14.299Z,3.73
2024-01-22T00:36:24.797Z,3.76
2024-01-22T00:36:35.282Z,3.76
2024-01-22T00:36:45.784Z,3.75
2024-01-22T00:36:56.280Z,3.78
2024-01-22T00:37:06.790Z,3.75
2024-01-22T00:37:17.304Z,3.75
2024-01-22T00:37:27.804Z,3.76
2024-01-22T00:37:38.302Z,3.78
2024-01-22T00:37:48.822Z,3.78
2024-01-22T00:37:59.365Z,3.79
2024-01-22T00:38:09.826Z,3.80
2024-01-22T00:38:20.332Z,3.78
2024-01-22T00:38:30.863Z,3.80
2024-01-22T00:38:41.348Z,3.84
2024-01-22T00:38:51.944Z,3.87
2024-01-22T00:39:02.365Z,3.87
2024-01-22T00:39:12.949Z,3.87
2024-01-22T00:39:23.370Z,3.88
2024-01-22T00:39:33.876Z,3.90
2024-01-22T00:39:44.392Z,3.87
2024-01-22T00:39:54.884Z,3.87
2024-01-22T00:40:05.387Z,3.87
2024-01-22T00:40:15.912Z,3.86
2024-01-22T00:40:26.415Z,3.86
2024-01-22T00:40:36.907Z,3.87
2024-01-22T00:40:47.417Z,3.88
2024-01-22T00:40:57.921Z,3.91
2024-01-22T00:41:08.423Z,3.90
2024-01-22T00:41:18.952Z,3.90
2024-01-22T00:41:29.439Z,3.91
2024-01-22T00:41:39.991Z,3.91
2024-01-22T00:41:50.467Z,3.90
2024-01-22T00:42:01.026Z,3.91
2024-01-22T00:42:11.575Z,3.90
2024-01-22T00:42:21.974Z,3.94
2024-01-22T00:42:32.474Z,3.94
2024-01-22T00:42:43.070Z,3.94
2024-01-22T00:42:53.527Z,3.93
2024-01-22T00:43:04.020Z,3.93
2024-01-22T00:43:14.499Z,3.93
2024-01-22T00:43:25.040Z,3.91
2024-01-22T00:43:35.517Z,3.91
2024-01-22T00:43:46.019Z,3.91
2024-01-22T00:43:56.527Z,3.93
2024-01-22T00:44:07.036Z,3.91
2024-01-22T00:44:17.537Z,3.91
2024-01-22T00:44:28.040Z,3.91
2024-01-22T00:44:38.575Z,3.93
2024-01-22T00:44:49.105Z,3.93
2024-01-22T00:44:59.566Z,3.94
2024-01-22T00:45:10.203Z,3.93
2024-01-22T00:45:20.620Z,3.91
2024-01-22T00:45:31.112Z,3.93
2024-01-22T00:45:41.577Z,3.96
2024-01-22T00:45:52.088Z,3.96
2024-01-22T00:46:02.590Z,3.94
2024-01-22T00:46:13.104Z,3.96
2024-01-22T00:46:23.617Z,3.94
2024-01-22T00:46:35.570Z,3.94
2024-01-22T00:46:44.695Z,3.94
2024-01-22T00:46:55.128Z,3.94
2024-01-22T00:47:05.623Z,3.93
2024-01-22T00:47:16.114Z,3.93
2024-01-22T00:47:26.669Z,3.93
2024-01-22T00:47:37.214Z,3.94
2024-01-22T00:47:47.763Z,3.94
2024-01-22T00:47:58.183Z,3.96
2024-01-22T00:48:08.951Z,3.96
2024-01-22T00:48:19.286Z,3.96
2024-01-22T00:48:29.771Z,3.94
2024-01-22T00:48:40.301Z,3.94
2024-01-22T00:48:50.754Z,3.96
2024-01-22T00:49:01.337Z,3.94
2024-01-22T00:49:11.755Z,3.96
2024-01-22T00:49:22.280Z,3.96
2024-01-22T00:49:32.732Z,3.96
2024-01-22T00:49:43.235Z,3.96
2024-01-22T00:49:53.712Z,3.98
2024-01-22T00:50:04.178Z,3.97
2024-01-22T00:50:14.710Z,3.98
2024-01-22T00:50:25.194Z,4.00
2024-01-22T00:50:35.707Z,4.00
2024-01-22T00:50:46.253Z,4.00
2024-01-22T00:50:56.771Z,4.00
2024-01-22T00:51:07.322Z,4.00
2024-01-22T00:51:17.746Z,3.97
2024-01-22T00:51:28.240Z,3.98
2024-01-22T00:51:38.720Z,3.97
2024-01-22T00:51:49.209Z,3.96
2024-01-22T00:51:59.723Z,3.97
2024-01-22T00:52:10.218Z,3.98
2024-01-22T00:52:20.738Z,3.97
2024-01-22T00:52:31.248Z,3.97
2024-01-22T00:52:41.746Z,3.96
2024-01-22T00:52:52.245Z,3.96
2024-01-22T00:53:02.760Z,3.98
2024-01-22T00:53:13.250Z,3.97
2024-01-22T00:53:23.762Z,3.97
2024-01-22T00:53:34.298Z,3.97
2024-01-22T00:53:44.784Z,3.98
2024-01-22T00:53:55.317Z,4.00
2024-01-22T00:54:05.809Z,4.02
2024-01-22T00:54:16.382Z,4.02
2024-01-22T00:54:26.788Z,4.02
2024-01-22T00:54:37.300Z,4.04
2024-01-22T00:54:47.801Z,4.04
2024-01-22T00:54:58.310Z,4.05
2024-01-22T00:55:08.814Z,4.05
2024-01-22T00:55:19.336Z,4.05
2024-01-22T00:55:29.840Z,4.05
2024-01-22T00:55:40.322Z,4.02
2024-01-22T00:55:50.834Z,4.04
2024-01-22T00:56:01.338Z,4.06
2024-01-22T00:56:11.845Z,4.09
2024-01-22T00:56:22.367Z,4.09
2024-01-22T00:56:32.904Z,4.11
2024-01-22T00:56:43.461Z,4.11
2024-01-22T00:56:53.931Z,4.14
2024-01-22T00:57:04.360Z,4.14
2024-01-22T00:57:14.912Z,4.14
2024-01-22T00:57:25.368Z,4.14
2024-01-22T00:57:35.886Z,4.15
2024-01-22T00:57:46.394Z,4.15
2024-01-22T00:57:56.905Z,4.14
2024-01-22T00:58:07.389Z,4.15
2024-01-22T00:58:17.890Z,4.16
2024-01-22T00:58:28.387Z,4.14
2024-01-22T00:58:38.893Z,4.16
2024-01-22T00:58:49.404Z,4.14
2024-01-22T00:58:59.982Z,4.14
2024-01-22T00:59:10.405Z,4.14
2024-01-22T00:59:20.909Z,4.12
2024-01-22T00:59:31.412Z,4.12
2024-01-22T00:59:42.012Z,4.12
2024-01-22T00:59:52.477Z,4.12
2024-01-22T01:00:02.983Z,4.12
2024-01-22T01:00:13.531Z,4.11
2024-01-22T01:00:23.988Z,4.11
2024-01-22T01:00:34.449Z,4.09
2024-01-22T01:00:45.002Z,4.08
2024-01-22T01:00:55.513Z,4.04
2024-01-22T01:01:06.054Z,4.04
2024-01-22T01:01:16.495Z,4.04
2024-01-22T01:01:27.018Z,4.04
2024-01-22T01:01:37.494Z,4.05
2024-01-22T01:01:48.006Z,4.04
2024-01-22T01:01:58.489Z,4.04
2024-01-22T01:02:09.005Z,4.04
2024-01-22T01:02:19.507Z,4.04
2024-01-22T01:02:30.017Z,4.00
2024-01-22T01:02:40.542Z,4.02
2024-01-22T01:02:51.062Z,4.02
2024-01-22T01:03:01.853Z,4.02
2024-01-22T01:03:12.178Z,4.00
2024-01-22T01:03:22.711Z,4.02
2024-01-22T01:03:33.217Z,4.02
2024-01-22T01:03:43.580Z,4.02
2024-01-22T01:03:54.176Z,4.04
2024-01-22T01:04:04.631Z,4.04
2024-01-22T01:04:15.112Z,4.04
2024-01-22T01:04:25.640Z,4.00
2024-01-22T01:04:36.078Z,4.00
2024-01-22T01:04:46.608Z,4.02
2024-01-22T01:04:57.129Z,4.00
2024-01-22T01:05:07.634Z,3.98
2024-01-22T01:05:18.101Z,3.98
2024-01-22T01:05:28.618Z,4.00
2024-01-22T01:05:39.127Z,4.02
2024-01-22T01:05:49.630Z,4.06
2024-01-22T01:06:00.150Z,4.09
2024-01-22T01:06:10.627Z,4.09
2024-01-22T01:06:21.158Z,4.09
2024-01-22T01:06:31.633Z,4.09
2024-01-22T01:06:42.116Z,4.08
2024-01-22T01:06:52.621Z,4.08
2024-01-22T01:07:03.119Z,4.08
2024-01-22T01:07:13.628Z,4.06
2024-01-22T01:07:24.128Z,4.05
2024-01-22T01:07:34.631Z,4.02
2024-01-22T01:07:45.142Z,4.05
2024-01-22T01:07:55.634Z,4.04
2024-01-22T01:08:06.174Z,4.05
2024-01-22T01:08:16.640Z,4.02
2024-01-22T01:08:27.152Z,4.02
2024-01-22T01:08:37.694Z,4.00
2024-01-22T01:08:48.701Z,4.00
2024-01-22T01:08:59.213Z,4.00
2024-01-22T01:09:09.728Z,4.00
2024-01-22T01:09:20.258Z,4.02
2024-01-22T01:09:30.678Z,4.00
2024-01-22T01:09:41.159Z,4.00
2024-01-22T01:09:51.671Z,4.00
2024-01-22T01:10:02.165Z,3.98
2024-01-22T01:10:12.703Z,4.00
2024-01-22T01:10:23.179Z,4.00
2024-01-22T01:10:33.682Z,4.02
2024-01-22T01:10:44.180Z,4.06
2024-01-22T01:10:54.693Z,4.08
2024-01-22T01:11:05.197Z,4.09
2024-01-22T01:11:15.696Z,4.11
2024-01-22T01:11:26.199Z,4.12
2024-01-22T01:11:36.753Z,4.14
2024-01-22T01:11:47.266Z,4.15
2024-01-22T01:11:57.775Z,4.15
2024-01-22T01:12:08.274Z,4.20
2024-01-22T01:12:18.740Z,4.20
2024-01-22T01:12:29.222Z,4.23
2024-01-22T01:12:39.729Z,4.24
2024-01-22T01:12:50.241Z,4.26
2024-01-22T01:13:00.740Z,4.27
2024-01-22T01:13:11.239Z,4.27
2024-01-22T01:13:21.748Z,4.27
2024-01-22T01:13:32.248Z,4.27
2024-01-22T01:13:42.758Z,4.26
2024-01-22T01:13:53.267Z,4.26
2024-01-22T01:14:03.764Z,4.24
2024-01-22T01:14:14.264Z,4.23
2024-01-22T01:14:25.296Z,4.23
2024-01-22T01:14:35.789Z,4.23
2024-01-22T01:14:46.316Z,4.23
2024-01-22T01:14:56.782Z,4.23
2024-01-22T01:15:07.328Z,4.23
2024-01-22T01:15:17.826Z,4.23
2024-01-22T01:15:28.281Z,4.23
2024-01-22T01:15:38.793Z,4.23
2024-01-22T01:15:49.298Z,4.23
2024-01-22T01:15:59.793Z,4.22
2024-01-22T01:16:10.298Z,4.22
2024-01-22T01:16:20.800Z,4.20
2024-01-22T01:16:31.317Z,4.20
2024-01-22T01:16:41.801Z,4.22
2024-01-22T01:16:52.339Z,4.18
2024-01-22T01:17:02.821Z,4.16
2024-01-22T01:17:13.323Z,4.16
2024-01-22T01:17:23.847Z,4.18
2024-01-22T01:17:34.486Z,4.18
2024-01-22T01:17:44.899Z,4.16
2024-01-22T01:17:55.468Z,4.15
2024-01-22T01:18:05.909Z,4.15
2024-01-22T01:18:16.441Z,4.14
2024-01-22T01:18:26.963Z,4.12
2024-01-22T01:18:37.432Z,4.11
2024-01-22T01:18:47.920Z,4.09
2024-01-22T01:18:58.537Z,4.06
2024-01-22T01:19:08.924Z,4.08
2024-01-22T01:19:19.545Z,4.05
2024-01-22T01:19:29.898Z,4.06
2024-01-22T01:19:40.426Z,4.05
2024-01-22T01:19:51.374Z,4.04
2024-01-22T01:20:01.873Z,4.04
2024-01-22T01:20:12.376Z,4.04
2024-01-22T01:20:22.877Z,4.05
2024-01-22T01:20:33.380Z,4.06
2024-01-22T01:20:43.924Z,4.08
2024-01-22T01:20:54.400Z,4.08
2024-01-22T01:21:04.875Z,4.08
2024-01-22T01:21:15.483Z,4.09
2024-01-22T01:21:25.874Z,4.09
2024-01-22T01:21:36.390Z,4.11
2024-01-22T01:21:47.416Z,4.09
2024-01-22T01:21:57.877Z,4.11
2024-01-22T01:22:08.394Z,4.12
2024-01-22T01:22:18.907Z,4.14
2024-01-22T01:22:29.396Z,4.12
2024-01-22T01:22:39.896Z,4.11
2024-01-22T01:22:50.438Z,4.11
2024-01-22T01:23:00.918Z,4.11
2024-01-22T01:23:11.414Z,4.14
2024-01-22T01:23:21.946Z,4.14
2024-01-22T01:23:32.535Z,4.14
2024-01-22T01:23:42.938Z,4.14
2024-01-22T01:23:53.452Z,4.12
2024-01-22T01:24:03.967Z,4.11
2024-01-22T01:24:14.490Z,4.11
2024-01-22T01:24:24.945Z,4.11
2024-01-22T01:24:35.453Z,4.11
2024-01-22T01:24:45.949Z,4.12
2024-01-22T01:24:56.459Z,4.11
2024-01-22T01:25:06.983Z,4.12
2024-01-22T01:25:17.478Z,4.14
2024-01-22T01:25:27.972Z,4.14
2024-01-22T01:25:38.496Z,4.18
2024-01-22T01:25:48.983Z,4.20
2024-01-22T01:25:59.496Z,4.22
2024-01-22T01:26:10.000Z,4.22
2024-01-22T01:26:20.497Z,4.22
2024-01-22T01:26:31.011Z,4.23
2024-01-22T01:26:41.565Z,4.24
2024-01-22T01:26:52.045Z,4.26
2024-01-22T01:27:02.536Z,4.24
2024-01-22T01:27:13.169Z,4.26
2024-01-22T01:27:23.593Z,4.24
2024-01-22T01:27:34.021Z,4.24
2024-01-22T01:27:44.622Z,4.24
2024-01-22T01:27:55.051Z,4.24
2024-01-22T01:28:05.592Z,4.27
2024-01-22T01:28:16.073Z,4.29
2024-01-22T01:28:26.594Z,4.30
2024-01-22T01:28:37.060Z,4.30
2024-01-22T01:28:47.550Z,4.29
2024-01-22T01:28:58.037Z,4.27
2024-01-22T01:29:08.562Z,4.29
2024-01-22T01:29:19.047Z,4.26
2024-01-22T01:29:29.547Z,4.26
2024-01-22T01:29:40.079Z,4.24
2024-01-22T01:29:50.582Z,4.20
2024-01-22T01:30:01.120Z,4.22
2024-01-22T01:30:11.594Z,4.20
2024-01-22T01:30:22.070Z,4.22
2024-01-22T01:30:32.568Z,4.20
2024-01-22T01:30:43.566Z,4.18
2024-01-22T01:30:54.072Z,4.20
2024-01-22T01:31:04.565Z,4.20
2024-01-22T01:31:15.068Z,4.20
2024-01-22T01:31:25.606Z,4.18
2024-01-22T01:31:36.089Z,4.18
2024-01-22T01:31:46.585Z,4.22
2024-01-22T01:31:57.085Z,4.22
2024-01-22T01:32:07.661Z,4.23
2024-01-22T01:32:18.207Z,4.23
2024-01-22T01:32:28.719Z,4.24
2024-01-22T01:32:39.284Z,4.24
2024-01-22T01:32:49.769Z,4.24
2024-01-22T01:33:00.283Z,4.23
2024-01-22T01:33:10.736Z,4.26
2024-01-22T01:33:21.294Z,4.23
2024-01-22T01:33:31.771Z,4.23
2024-01-22T01:33:42.345Z,4.20
2024-01-22T01:33:52.811Z,4.23
2024-01-22T01:34:03.229Z,4.23
2024-01-22T01:34:13.754Z,4.22
2024-01-22T01:34:24.360Z,4.22
2024-01-22T01:34:34.739Z,4.23
2024-01-22T01:34:45.169Z,4.24
2024-01-22T01:34:55.684Z,4.22
2024-01-22T01:35:06.186Z,4.24
2024-01-22T01:35:16.686Z,4.22
2024-01-22T01:35:27.219Z,4.23
2024-01-22T01:35:37.753Z,4.22
2024-01-22T01:35:48.286Z,4.22
2024-01-22T01:35:58.757Z,4.23
2024-01-22T01:36:09.250Z,4.20
2024-01-22T01:36:19.735Z,4.16
2024-01-22T01:36:30.207Z,4.18
2024-01-22T01:36:40.734Z,4.16
2024-01-22T01:36:51.228Z,4.15
2024-01-22T01:37:01.720Z,4.16
2024-01-22T01:37:12.232Z,4.15
2024-01-22T01:37:22.731Z,4.16
2024-01-22T01:37:33.249Z,4.18
2024-01-22T01:37:44.043Z,4.20
2024-01-22T01:37:54.242Z,4.18
2024-01-22T01:38:04.767Z,4.18
2024-01-22T01:38:15.286Z,4.20
2024-01-22T01:38:25.762Z,4.22
2024-01-22T01:38:36.291Z,4.23
2024-01-22T01:38:46.792Z,4.23
2024-01-22T01:38:57.318Z,4.24
2024-01-22T01:39:07.791Z,4.26
2024-01-22T01:39:18.270Z,4.27
2024-01-22T01:39:29.275Z,4.24
2024-01-22T01:39:39.784Z,4.27
2024-01-22T01:39:50.281Z,4.26
2024-01-22T01:40:00.777Z,4.27
2024-01-22T01:40:11.315Z,4.24
2024-01-22T01:40:21.785Z,4.26
2024-01-22T01:40:32.285Z,4.24
2024-01-22T01:40:42.831Z,4.26
2024-01-22T01:40:53.297Z,4.26
2024-01-22T01:41:03.802Z,4.26
2024-01-22T01:41:14.300Z,4.26
2024-01-22T01:41:24.815Z,4.26
2024-01-22T01:41:35.316Z,4.24
2024-01-22T01:41:45.829Z,4.23
2024-01-22T01:41:56.362Z,4.24
2024-01-22T01:42:06.899Z,4.20
2024-01-22T01:42:17.395Z,4.20
2024-01-22T01:42:27.828Z,4.20
2024-01-22T01:42:38.328Z,4.18
2024-01-22T01:42:48.825Z,4.14
2024-01-22T01:42:59.333Z,4.14
2024-01-22T01:43:09.855Z,4.14
2024-01-22T01:43:20.356Z,4.14
2024-01-22T01:43:30.839Z,4.14
2024-01-22T01:43:41.345Z,4.11
2024-01-22T01:43:51.846Z,4.11
2024-01-22T01:44:02.365Z,4.14
2024-01-22T01:44:12.857Z,4.14
2024-01-22T01:44:23.374Z,4.16
2024-01-22T01:44:33.878Z,4.16
2024-01-22T01:44:44.485Z,4.20
2024-01-22T01:44:54.909Z,4.24
2024-01-22T01:45:05.397Z,4.24
2024-01-22T01:45:16.212Z,4.26
2024-01-22T01:45:26.395Z,4.27
2024-01-22T01:45:36.909Z,4.29
2024-01-22T01:45:47.407Z,4.27
2024-01-22T01:45:57.910Z,4.29
2024-01-22T01:46:08.420Z,4.29
2024-01-22T01:46:18.913Z,4.29
2024-01-22T01:46:29.427Z,4.33
2024-01-22T01:46:39.954Z,4.37
2024-01-22T01:46:50.430Z,4.37
2024-01-22T01:47:00.933Z,4.37
2024-01-22T01:47:11.484Z,4.40
2024-01-22T01:47:21.939Z,4.41
2024-01-22T01:47:32.496Z,4.42
2024-01-22T01:47:43.016Z,4.41
2024-01-22T01:47:53.479Z,4.41
2024-01-22T01:48:04.126Z,4.41
2024-01-22T01:48:14.624Z,4.40
2024-01-22T01:48:25.083Z,4.34
2024-01-22T01:48:35.592Z,4.33
2024-01-22T01:48:46.090Z,4.34
2024-01-22T01:48:56.627Z,4.33
2024-01-22T01:49:07.067Z,4.33
2024-01-22T01:49:17.575Z,4.32
2024-01-22T01:49:28.006Z,4.32
2024-01-22T01:49:38.556Z,4.30
2024-01-22T01:49:49.102Z,4.30
2024-01-22T01:49:59.527Z,4.29
2024-01-22T01:50:10.001Z,4.29
2024-01-22T01:50:20.521Z,4.26
2024-01-22T01:50:31.013Z,4.27
2024-01-22T01:50:41.551Z,4.24
2024-01-22T01:50:52.090Z,4.23
2024-01-22T01:51:02.586Z,4.24
2024-01-22T01:51:13.051Z,4.23
2024-01-22T01:51:23.528Z,4.20
2024-01-22T01:51:34.032Z,4.20
2024-01-22T01:51:44.543Z,4.20
2024-01-22T01:51:55.542Z,4.20
2024-01-22T01:52:06.045Z,4.18
2024-01-22T01:52:16.617Z,4.16
2024-01-22T01:52:27.047Z,4.14
2024-01-22T01:52:37.547Z,4.16
2024-01-22T01:52:48.076Z,4.18
2024-01-22T01:52:58.569Z,4.22
2024-01-22T01:53:09.070Z,4.22
2024-01-22T01:53:19.564Z,4.24
2024-01-22T01:53:30.062Z,4.26
2024-01-22T01:53:40.607Z,4.27
2024-01-22T01:53:51.096Z,4.29
2024-01-22T01:54:01.599Z,4.30
2024-01-22T01:54:12.141Z,4.30
2024-01-22T01:54:22.589Z,4.29
2024-01-22T01:54:33.096Z,4.29
2024-01-22T01:54:43.638Z,4.34
2024-01-22T01:54:54.137Z,4.36
2024-01-22T01:55:04.609Z,4.33
2024-01-22T01:55:15.106Z,4.34
2024-01-22T01:55:25.616Z,4.36
2024-01-22T01:55:36.118Z,4.37
2024-01-22T01:55:46.616Z,4.36
2024-01-22T01:55:57.124Z,4.37
2024-01-22T01:56:07.636Z,4.37
2024-01-22T01:56:18.134Z,4.37
2024-01-22T01:56:28.650Z,4.37
2024-01-22T01:56:39.199Z,4.36
2024-01-22T01:56:49.673Z,4.36
2024-01-22T01:57:00.216Z,4.36
2024-01-22T01:57:10.760Z,4.34
2024-01-22T01:57:21.166Z,4.34
2024-01-22T01:57:31.671Z,4.33
2024-01-22T01:57:45.486Z,4.32
2024-01-22T01:57:57.784Z,4.33
2024-01-22T01:58:06.171Z,4.33
2024-01-22T01:58:13.691Z,4.32
2024-01-22T01:58:24.194Z,4.32
2024-01-22T01:58:34.704Z,4.32
2024-01-22T01:58:45.201Z,4.32
2024-01-22T01:58:55.751Z,4.32
2024-01-22T01:59:06.208Z,4.32
2024-01-22T01:59:16.712Z,4.33
2024-01-22T01:59:27.215Z,4.32
2024-01-22T01:59:37.732Z,4.33
2024-01-22T01:59:48.252Z,4.33
2024-01-22T01:59:58.786Z,4.33
2024-01-22T02:00:11.267Z,4.32
2024-01-22T02:00:19.895Z,4.37
2024-01-22T02:00:30.395Z,4.40
2024-01-22T02:00:40.805Z,4.44
2024-01-22T02:00:51.434Z,4.42
2024-01-22T02:01:01.815Z,4.42
2024-01-22T02:01:12.343Z,4.42
2024-01-22T02:01:22.801Z,4.42
2024-01-22T02:01:33.459Z,4.37
2024-01-22T02:01:43.884Z,4.40
2024-01-22T02:01:54.287Z,4.36
2024-01-22T02:02:04.795Z,4.37
2024-01-22T02:02:15.283Z,4.41
2024-01-22T02:02:25.809Z,4.40
2024-01-22T02:02:36.347Z,4.41
2024-01-22T02:02:46.890Z,4.40
2024-01-22T02:02:57.485Z,4.40
2024-01-22T02:03:07.906Z,4.41
2024-01-22T02:03:18.350Z,4.41
2024-01-22T02:03:28.954Z,4.41
2024-01-22T02:03:39.457Z,4.41
2024-01-22T02:03:49.970Z,4.42
2024-01-22T02:04:00.414Z,4.40
2024-01-22T02:04:10.859Z,4.42
2024-01-22T02:04:21.353Z,4.42
2024-01-22T02:04:31.860Z,4.41
2024-01-22T02:04:42.394Z,4.42
2024-01-22T02:04:52.889Z,4.42
2024-01-22T02:05:03.466Z,4.42
2024-01-22T02:05:13.899Z,4.41
2024-01-22T02:05:24.389Z,4.37
2024-01-22T02:05:35.045Z,4.36
2024-01-22T02:05:45.503Z,4.33
2024-01-22T02:05:55.899Z,4.37
2024-01-22T02:06:06.456Z,4.34
2024-01-22T02:06:16.985Z,4.33
2024-01-22T02:06:27.410Z,4.33
2024-01-22T02:06:37.919Z,4.33
2024-01-22T02:06:48.427Z,4.32
2024-01-22T02:06:58.932Z,4.29
2024-01-22T02:07:09.428Z,4.30
2024-01-22T02:07:19.944Z,4.30
2024-01-22T02:07:30.437Z,4.30
2024-01-22T02:07:40.941Z,4.30
2024-01-22T02:07:51.437Z,4.33
2024-01-22T02:08:02.144Z,4.33
2024-01-22T02:08:12.456Z,4.30
2024-01-22T02:08:22.955Z,4.30
2024-01-22T02:08:33.487Z,4.33
2024-01-22T02:08:43.991Z,4.34
2024-01-22T02:08:54.593Z,4.36
2024-01-22T02:09:05.035Z,4.34
2024-01-22T02:09:15.528Z,4.34
2024-01-22T02:09:25.978Z,4.36
2024-01-22T02:09:36.492Z,4.36
2024-01-22T02:09:46.993Z,4.36
2024-01-22T02:09:57.503Z,4.36
2024-01-22T02:10:08.119Z,4.33
2024-01-22T02:10:18.517Z,4.33
2024-01-22T02:10:29.035Z,4.36
2024-01-22T02:10:39.513Z,4.34
2024-01-22T02:10:50.034Z,4.36
2024-01-22T02:11:00.524Z,4.36
2024-01-22T02:11:11.031Z,4.37
2024-01-22T02:11:21.528Z,4.36
2024-01-22T02:11:32.058Z,4.36
2024-01-22T02:11:42.571Z,4.36
2024-01-22T02:11:53.100Z,4.37
2024-01-22T02:12:03.582Z,4.37
2024-01-22T02:12:14.143Z,4.36
2024-01-22T02:12:24.572Z,4.37
2024-01-22T02:12:35.074Z,4.37
2024-01-22T02:12:45.653Z,4.36
2024-01-22T02:12:56.080Z,4.36
2024-01-22T02:13:06.579Z,4.37
2024-01-22T02:13:17.087Z,4.37
2024-01-22T02:13:27.591Z,4.37
2024-01-22T02:13:38.206Z,4.37
2024-01-22T02:13:48.611Z,4.36
2024-01-22T02:13:59.130Z,4.36
2024-01-22T02:14:09.595Z,4.36
2024-01-22T02:14:20.105Z,4.34
2024-01-22T02:14:30.621Z,4.34
2024-01-22T02:14:41.129Z,4.37
2024-01-22T02:14:51.654Z,4.37
2024-01-22T02:15:02.162Z,4.40
2024-01-22T02:15:12.707Z,4.36
2024-01-22T02:15:23.210Z,4.36
2024-01-22T02:15:33.636Z,4.40
2024-01-22T02:15:44.138Z,4.40
2024-01-22T02:15:54.632Z,4.40
2024-01-22T02:16:05.138Z,4.40
2024-01-22T02:16:15.647Z,4.42
2024-01-22T02:16:26.152Z,4.45
2024-01-22T02:16:36.655Z,4.48
2024-01-22T02:16:47.161Z,4.48
2024-01-22T02:16:57.669Z,4.48
2024-01-22T02:17:08.168Z,4.50
2024-01-22T02:17:18.682Z,4.50
2024-01-22T02:17:29.200Z,4.48
2024-01-22T02:17:39.843Z,4.50
2024-01-22T02:17:50.343Z,4.50
2024-01-22T02:18:00.879Z,4.52
2024-01-22T02:18:11.524Z,4.52
2024-01-22T02:18:21.853Z,4.54
2024-01-22T02:18:32.405Z,4.52
2024-01-22T02:18:42.815Z,4.52
2024-01-22T02:18:53.442Z,4.55
2024-01-22T02:19:03.819Z,4.54
2024-01-22T02:19:14.356Z,4.52
2024-01-22T02:19:24.848Z,4.52
2024-01-22T02:19:35.550Z,4.51
2024-01-22T02:19:45.810Z,4.52
2024-01-22T02:19:56.264Z,4.52